Time;durP1;ratioP1;P1;durP2;ratioP2;P2;SDS_P1;SDS_P2;PMS_P1;PMS_P2;Temp;Humidity;BMP_temperature;BMP_pressure;BME280_temperature;BME280_humidity;BME280_pressure;Samples;Min_cycle;Max_cycle;Signal;HPM_P1;HPM_P2
2022/01/06 00:01:12;;;;;;;11.20;8.88;;;;;;;15.95;43.60;97588.89;1754643;80;20991;-68
2022/01/06 00:03:39;;;;;;;8.68;7.87;;;;;;;15.95;43.55;97592.91;1768032;81;21133;-67
2022/01/06 00:06:08;;;;;;;9.48;8.55;;;;;;;15.98;43.50;97588.39;1727718;82;21002;-66
2022/01/06 00:08:35;;;;;;;10.13;8.78;;;;;;;16.04;43.39;97583.35;1754670;81;20927;-65
2022/01/06 00:11:02;;;;;;;11.20;9.43;;;;;;;16.08;43.29;97596.56;1752374;80;20915;-68
2022/01/06 00:24:18;;;;;;;9.03;7.62;;;;;;;16.11;43.16;97605.45;1794090;79;20912;-63
2022/01/06 00:26:45;;;;;;;8.18;7.47;;;;;;;16.24;43.00;97609.62;1796921;79;21011;-67
2022/01/06 00:29:11;;;;;;;8.60;7.80;;;;;;;16.33;42.78;97616.14;1780739;79;21035;-67
2022/01/06 00:31:38;;;;;;;6.72;6.12;;;;;;;16.35;42.67;97618.03;1790575;79;20970;-67
2022/01/06 00:34:08;;;;;;;5.90;5.33;;;;;;;16.31;42.54;97617.75;1780479;79;21061;-66
2022/01/06 00:36:34;;;;;;;4.17;3.77;;;;;;;16.16;42.57;97620.78;1786872;79;20928;-64
2022/01/06 00:39:00;;;;;;;3.50;3.20;;;;;;;16.06;42.40;97642.39;1751481;80;20976;-65
2022/01/06 00:41:27;;;;;;;3.00;2.52;;;;;;;16.01;42.31;97650.89;1762976;80;21135;-67
2022/01/06 00:43:53;;;;;;;2.22;2.02;;;;;;;15.88;42.05;97658.77;1807164;78;21374;-64
2022/01/06 00:46:20;;;;;;;2.58;2.22;;;;;;;15.83;41.81;97658.70;1806675;78;20922;-67
2022/01/06 00:48:46;;;;;;;2.52;2.33;;;;;;;15.70;41.69;97656.38;1811485;78;20983;-65
2022/01/06 00:51:13;;;;;;;2.80;2.33;;;;;;;15.69;41.48;97673.53;1802121;79;20923;-67
2022/01/06 00:53:39;;;;;;;2.90;2.33;;;;;;;15.65;41.33;97673.73;1798381;78;21093;-65
2022/01/06 00:56:05;;;;;;;3.72;2.77;;;;;;;15.60;41.17;97684.89;1807803;78;21541;-65
2022/01/06 00:58:32;;;;;;;3.80;2.75;;;;;;;15.53;40.90;97689.10;1795697;79;20930;-67
2022/01/06 01:00:58;;;;;;;3.45;2.20;;;;;;;15.51;40.73;97687.72;1814985;78;22280;-65
2022/01/06 01:03:27;;;;;;;2.67;2.22;;;;;;;15.43;40.61;97683.55;1789036;79;21005;-66
2022/01/06 01:05:55;;;;;;;2.90;2.35;;;;;;;15.40;40.45;97667.44;1766372;80;21144;-65
2022/01/06 01:08:23;;;;;;;3.95;2.25;;;;;;;15.29;40.39;97669.66;1765412;80;20911;-65
2022/01/06 01:10:52;;;;;;;3.05;2.08;;;;;;;15.20;40.37;97676.47;1760177;80;21066;-68
2022/01/06 01:13:27;;;;;;;3.72;2.40;;;;;;;15.11;40.54;97676.59;1772210;80;20931;-65
2022/01/06 01:15:53;;;;;;;2.62;2.00;;;;;;;15.11;40.45;97681.95;1756885;80;20967;-66
2022/01/06 01:18:19;;;;;;;3.00;2.17;;;;;;;14.98;40.48;97678.24;1772674;80;21084;-65
2022/01/06 01:20:47;;;;;;;4.65;2.55;;;;;;;14.93;40.42;97695.56;1761276;80;20950;-68
2022/01/06 01:23:14;;;;;;;4.20;2.62;;;;;;;14.88;40.30;97701.34;1803645;78;20875;-66
2022/01/06 01:25:41;;;;;;;3.98;2.47;;;;;;;14.79;40.33;97711.09;1764105;80;20971;-64
2022/01/06 01:28:07;;;;;;;4.20;2.35;;;;;;;14.71;40.30;97719.51;1797644;78;20948;-65
2022/01/06 01:30:41;;;;;;;4.80;4.05;;;;;;;14.63;40.34;97717.20;1793135;78;21140;-65
2022/01/06 01:33:02;;;;;;;4.92;3.12;;;;;;;14.58;40.19;97718.45;1807304;79;21465;-66
2022/01/06 01:35:31;;;;;;;3.92;2.67;;;;;;;14.52;40.17;97718.59;1803885;78;20913;-64
2022/01/06 01:37:56;;;;;;;3.08;2.58;;;;;;;14.46;40.17;97726.23;1809322;78;20923;-69
2022/01/06 01:40:23;;;;;;;3.77;2.27;;;;;;;14.41;40.20;97735.48;1804845;79;20886;-67
2022/01/06 01:42:51;;;;;;;6.50;3.37;;;;;;;14.39;40.24;97749.62;1791465;78;21429;-68
2022/01/06 01:45:17;;;;;;;4.70;3.27;;;;;;;14.41;40.26;97751.54;1811007;78;20958;-68
2022/01/06 01:47:45;;;;;;;4.50;2.70;;;;;;;14.37;40.28;97755.20;1789633;79;20919;-65
2022/01/06 01:50:16;;;;;;;4.65;2.55;;;;;;;14.33;40.28;97756.73;1798225;78;20935;-65
2022/01/06 01:52:52;;;;;;;6.20;2.92;;;;;;;14.31;40.29;97764.19;1797675;78;20969;-66
2022/01/06 01:55:28;;;;;;;5.35;2.95;;;;;;;14.27;40.31;97770.19;1801559;78;21188;-65
2022/01/06 01:57:54;;;;;;;3.62;2.62;;;;;;;14.17;40.45;97764.10;1803568;78;25231;-64
2022/01/06 02:00:23;;;;;;;4.78;2.70;;;;;;;14.12;40.43;97761.31;1793975;78;20978;-65
2022/01/06 02:02:50;;;;;;;3.05;2.22;;;;;;;14.09;40.44;97755.09;1810606;78;20902;-67
2022/01/06 02:05:24;;;;;;;2.55;1.90;;;;;;;14.05;40.43;97745.37;1805389;78;20962;-66
2022/01/06 02:07:44;;;;;;;3.35;2.08;;;;;;;13.99;40.42;97740.17;1807478;79;21113;-64
2022/01/06 02:10:12;;;;;;;3.52;2.50;;;;;;;13.93;40.43;97738.41;1796946;78;20915;-68
2022/01/06 02:12:41;;;;;;;3.08;2.12;;;;;;;13.90;40.40;97739.70;1804611;78;20954;-67
2022/01/06 02:15:09;;;;;;;3.77;2.35;;;;;;;13.80;40.40;97742.14;1788722;78;20940;-69
2022/01/06 02:17:36;;;;;;;3.98;2.40;;;;;;;13.71;40.41;97742.21;1811480;79;21079;-64
2022/01/06 02:20:13;;;;;;;4.15;2.60;;;;;;;13.62;40.47;97740.91;1812825;78;21138;-65
2022/01/06 02:22:39;;;;;;;4.85;2.83;;;;;;;13.53;40.48;97740.43;1813491;78;20911;-67
2022/01/06 02:25:20;;;;;;;3.65;2.77;;;;;;;13.44;40.54;97745.84;1807960;79;21437;-64
2022/01/06 02:27:50;;;;;;;3.30;2.60;;;;;;;13.30;40.70;97753.75;1802532;78;21500;-65
2022/01/06 02:30:16;;;;;;;5.53;2.90;;;;;;;13.26;40.69;97769.95;1794425;78;21044;-65
2022/01/06 02:32:43;;;;;;;4.83;3.52;;;;;;;13.18;40.74;97764.11;1802912;78;21147;-66
2022/01/06 02:35:15;;;;;;;4.08;2.87;;;;;;;13.12;40.80;97775.17;1798322;78;20891;-66
2022/01/06 02:37:41;;;;;;;3.92;2.90;;;;;;;13.09;40.78;97778.30;1811723;79;20966;-66
2022/01/06 02:40:13;;;;;;;3.52;3.08;;;;;;;13.03;40.80;97779.70;1803355;78;20922;-69
2022/01/06 02:42:43;;;;;;;4.50;2.92;;;;;;;12.94;40.88;97784.02;1793797;78;21042;-65
2022/01/06 02:45:11;;;;;;;6.10;2.92;;;;;;;12.84;40.97;97786.93;1795291;79;21147;-66
2022/01/06 02:47:39;;;;;;;4.03;3.60;;;;;;;12.77;41.07;97786.21;1785537;79;20868;-66
2022/01/06 02:50:06;;;;;;;7.67;4.03;;;;;;;12.70;41.17;97785.45;1794786;79;21465;-65
2022/01/06 02:52:33;;;;;;;5.70;4.53;;;;;;;12.66;41.21;97784.29;1784782;79;21018;-66
2022/01/06 02:54:59;;;;;;;6.25;5.17;;;;;;;12.60;41.29;97786.00;1748822;80;21451;-65
2022/01/06 02:57:25;;;;;;;7.67;5.80;;;;;;;12.54;41.38;97785.55;1762882;80;21151;-65
2022/01/06 02:59:52;;;;;;;6.85;5.08;;;;;;;12.53;41.41;97785.78;1748066;81;20986;-64
2022/01/06 03:02:18;;;;;;;9.78;5.75;;;;;;;12.46;41.49;97799.72;1751883;81;20920;-65
2022/01/06 03:04:45;;;;;;;6.45;5.33;;;;;;;12.34;41.63;97796.45;1730270;82;22020;-67
2022/01/06 03:07:11;;;;;;;6.72;5.35;;;;;;;12.26;41.75;97799.41;1764850;81;21611;-67
2022/01/06 03:09:39;;;;;;;8.28;5.50;;;;;;;12.17;41.88;97811.92;1747564;81;21155;-65
2022/01/06 03:12:17;;;;;;;7.45;6.00;;;;;;;12.08;42.04;97820.70;1757409;80;20915;-65
2022/01/06 03:14:37;;;;;;;6.90;5.80;;;;;;;12.04;42.06;97818.20;1747669;80;21014;-68
2022/01/06 03:17:05;;;;;;;9.50;6.37;;;;;;;11.96;42.24;97822.47;1791514;79;20927;-64
2022/01/06 03:19:33;;;;;;;7.08;6.35;;;;;;;11.98;42.31;97817.73;1797792;79;20938;-67
2022/01/06 03:21:59;;;;;;;8.78;6.30;;;;;;;12.04;42.32;97814.20;1754963;81;21402;-63
2022/01/06 03:24:26;;;;;;;8.05;6.72;;;;;;;12.10;42.26;97818.63;1756918;81;20919;-66
2022/01/06 03:26:52;;;;;;;7.17;6.40;;;;;;;12.15;42.17;97811.33;1761905;80;21110;-64
2022/01/06 03:29:18;;;;;;;7.53;6.58;;;;;;;12.14;42.08;97809.69;1752478;81;21509;-66
2022/01/06 03:31:45;;;;;;;11.83;7.75;;;;;;;12.16;42.05;97812.94;1753451;80;21517;-64
2022/01/06 03:34:12;;;;;;;8.35;7.50;;;;;;;12.21;42.00;97810.43;1737934;82;21162;-68
2022/01/06 03:36:39;;;;;;;10.85;7.60;;;;;;;12.26;41.85;97816.73;1730021;81;20935;-65
2022/01/06 03:39:05;;;;;;;12.07;8.03;;;;;;;12.29;41.73;97812.30;1732219;81;21497;-64
2022/01/06 03:41:33;;;;;;;20.55;11.85;;;;;;;12.31;41.63;97810.73;1737037;82;21525;-66
2022/01/06 03:44:00;;;;;;;33.02;16.62;;;;;;;12.23;41.54;97815.02;1733178;82;21028;-66
2022/01/06 03:46:27;;;;;;;30.95;15.30;;;;;;;12.18;41.40;97812.20;1736488;82;21159;-65
2022/01/06 03:48:53;;;;;;;31.95;17.17;;;;;;;12.18;41.28;97819.69;1735639;82;20880;-68
2022/01/06 03:51:23;;;;;;;29.15;15.88;;;;;;;12.16;41.24;97819.61;1791053;79;20947;-65
2022/01/06 03:53:48;;;;;;;25.80;15.18;;;;;;;12.08;41.23;97824.70;1785743;79;21857;-67
2022/01/06 03:56:14;;;;;;;23.18;14.87;;;;;;;12.09;41.13;97825.53;1786970;79;21050;-66
2022/01/06 03:58:40;;;;;;;20.48;13.08;;;;;;;12.09;41.04;97823.69;1796115;79;21298;-68
2022/01/06 04:01:07;;;;;;;19.12;11.45;;;;;;;12.09;40.92;97823.69;1791555;79;21511;-63
2022/01/06 04:03:34;;;;;;;13.08;8.73;;;;;;;12.06;40.84;97828.11;1784505;79;21451;-65
2022/01/06 04:06:00;;;;;;;9.35;7.00;;;;;;;12.04;40.85;97834.19;1795807;79;20924;-67
2022/01/06 04:08:27;;;;;;;9.70;7.20;;;;;;;12.01;40.87;97830.63;1801041;79;21624;-67
2022/01/06 04:10:54;;;;;;;7.25;5.95;;;;;;;11.97;40.93;97821.42;1784080;79;21153;-66
2022/01/06 04:13:20;;;;;;;6.80;5.72;;;;;;;11.97;40.94;97818.75;1785065;79;20887;-64
2022/01/06 04:15:47;;;;;;;6.78;6.05;;;;;;;11.98;40.94;97822.23;1792984;79;20895;-65
2022/01/06 04:18:14;;;;;;;8.58;5.75;;;;;;;11.97;40.96;97824.59;1783068;79;21391;-67
2022/01/06 04:20:41;;;;;;;7.90;6.28;;;;;;;11.97;40.95;97813.94;1784491;79;20935;-66
2022/01/06 04:23:07;;;;;;;10.78;6.70;;;;;;;11.93;41.10;97820.23;1788743;79;21119;-66
2022/01/06 04:25:33;;;;;;;11.45;7.45;;;;;;;11.89;41.16;97823.02;1799882;79;21462;-70
2022/01/06 04:27:59;;;;;;;9.18;7.42;;;;;;;11.82;41.30;97830.78;1784550;79;20952;-65
2022/01/06 04:30:27;;;;;;;11.00;7.05;;;;;;;11.78;41.45;97830.93;1754869;81;20951;-69
2022/01/06 04:32:53;;;;;;;9.45;6.17;;;;;;;11.73;41.63;97839.58;1757147;81;21031;-69
2022/01/06 04:35:20;;;;;;;8.75;6.67;;;;;;;11.78;41.68;97833.08;1759108;81;21454;-66
2022/01/06 04:37:46;;;;;;;9.43;6.72;;;;;;;11.80;41.64;97823.02;1722082;82;20947;-68
2022/01/06 04:40:12;;;;;;;9.65;6.85;;;;;;;11.75;41.75;97811.69;1759776;81;20880;-69
2022/01/06 04:42:39;;;;;;;15.43;8.38;;;;;;;11.72;41.85;97827.28;1722960;81;21494;-65
2022/01/06 04:45:07;;;;;;;10.78;9.05;;;;;;;11.72;41.87;97825.95;1748605;81;21046;-69
2022/01/06 04:47:34;;;;;;;12.23;8.50;;;;;;;11.69;41.93;97830.38;1752735;81;21074;-66
2022/01/06 04:50:00;;;;;;;12.50;8.33;;;;;;;11.66;41.95;97837.42;1746894;81;21504;-66
2022/01/06 04:52:26;;;;;;;8.53;6.95;;;;;;;11.57;42.16;97844.89;1742677;81;20987;-67
2022/01/06 04:54:53;;;;;;;9.15;7.95;;;;;;;11.55;42.18;97832.28;1739367;81;21053;-65
2022/01/06 04:57:19;;;;;;;8.58;6.95;;;;;;;11.58;42.18;97841.69;1748873;81;21508;-67
2022/01/06 04:59:46;;;;;;;9.03;6.20;;;;;;;11.61;42.06;97851.91;1747783;81;21150;-66
2022/01/06 05:02:12;;;;;;;6.87;5.78;;;;;;;11.55;42.13;97847.47;1743199;81;21372;-68
2022/01/06 05:04:39;;;;;;;6.20;5.50;;;;;;;11.52;42.17;97845.23;1744706;81;20986;-64
2022/01/06 05:07:05;;;;;;;6.28;5.28;;;;;;;11.54;42.15;97847.16;1754857;81;20939;-65
2022/01/06 05:09:32;;;;;;;7.55;5.50;;;;;;;11.54;42.18;97847.16;1747581;81;21493;-65
2022/01/06 05:11:58;;;;;;;8.35;5.90;;;;;;;11.56;42.15;97852.56;1742546;81;21210;-67
2022/01/06 05:14:24;;;;;;;7.65;5.95;;;;;;;11.55;42.20;97850.13;1799851;79;20923;-63
2022/01/06 05:16:51;;;;;;;7.03;5.83;;;;;;;11.59;42.19;97858.80;1763456;81;20891;-67
2022/01/06 05:19:17;;;;;;;7.47;4.85;;;;;;;11.62;42.07;97858.38;1750598;81;20943;-66
2022/01/06 05:21:44;;;;;;;7.35;5.60;;;;;;;11.64;42.07;97858.14;1725334;82;21066;-65
2022/01/06 05:24:14;;;;;;;9.33;5.40;;;;;;;11.68;41.96;97858.00;1762643;81;22033;-66
2022/01/06 05:26:40;;;;;;;7.12;5.10;;;;;;;11.73;41.91;97861.68;1751939;80;21034;-66
2022/01/06 05:29:08;;;;;;;7.12;5.30;;;;;;;11.71;41.82;97851.77;1746182;80;20959;-65
2022/01/06 05:31:35;;;;;;;10.50;5.33;;;;;;;11.73;41.76;97849.69;1760687;81;21036;-69
2022/01/06 05:34:01;;;;;;;7.25;4.90;;;;;;;11.78;41.64;97847.73;1754371;81;20880;-67
2022/01/06 05:36:28;;;;;;;6.53;4.60;;;;;;;11.80;41.53;97847.00;1757833;81;21127;-66
2022/01/06 05:38:54;;;;;;;6.20;4.47;;;;;;;11.80;41.49;97847.00;1751838;81;21432;-63
2022/01/06 05:41:21;;;;;;;6.58;4.53;;;;;;;11.79;41.41;97844.02;1762695;81;21397;-65
2022/01/06 05:43:49;;;;;;;7.33;4.47;;;;;;;11.86;41.27;97846.14;1761303;80;20999;-69
2022/01/06 05:46:16;;;;;;;10.13;5.75;;;;;;;11.91;41.14;97839.63;1773251;80;21622;-70
2022/01/06 05:48:44;;;;;;;10.75;6.12;;;;;;;11.96;41.08;97838.97;1768238;80;21223;-70
2022/01/06 05:51:10;;;;;;;8.03;5.12;;;;;;;11.98;41.00;97834.23;1804403;78;20918;-68
2022/01/06 05:53:37;;;;;;;6.50;4.75;;;;;;;12.02;40.97;97837.56;1768310;80;20907;-67
2022/01/06 05:56:04;;;;;;;6.08;4.45;;;;;;;12.05;40.93;97830.47;1812738;78;20959;-68
2022/01/06 05:58:31;;;;;;;8.88;5.37;;;;;;;12.12;40.80;97836.55;1809708;78;20965;-65
2022/01/06 06:00:57;;;;;;;6.12;4.55;;;;;;;12.15;40.72;97844.66;1801946;78;21168;-62
2022/01/06 06:03:27;;;;;;;5.97;4.37;;;;;;;12.15;40.69;97844.11;1768985;80;21017;-65
2022/01/06 06:05:52;;;;;;;6.08;4.12;;;;;;;12.19;40.64;97840.50;1763764;80;20863;-68
2022/01/06 06:08:18;;;;;;;6.95;4.50;;;;;;;12.21;40.59;97842.42;1811318;78;21513;-68
2022/01/06 06:10:45;;;;;;;7.08;3.92;;;;;;;12.20;40.62;97846.14;1800111;79;21366;-69
2022/01/06 06:13:11;;;;;;;8.23;4.90;;;;;;;12.17;40.66;97847.91;1809190;78;21151;-68
2022/01/06 06:15:38;;;;;;;5.08;3.83;;;;;;;12.15;40.75;97850.78;1798738;79;20958;-72
2022/01/06 06:18:07;;;;;;;5.65;4.78;;;;;;;12.15;40.78;97853.44;1775109;80;20997;-70
2022/01/06 06:20:33;;;;;;;7.28;4.45;;;;;;;12.11;40.82;97861.59;1753584;80;20911;-71
2022/01/06 06:23:00;;;;;;;4.80;3.65;;;;;;;12.14;40.83;97869.16;1756767;80;21478;-74
2022/01/06 06:25:26;;;;;;;8.45;4.42;;;;;;;12.19;40.78;97872.49;1755008;80;21192;-73
2022/01/06 06:27:52;;;;;;;5.75;4.28;;;;;;;12.19;40.76;97873.31;1748389;80;20911;-67
2022/01/06 06:30:19;;;;;;;10.23;4.58;;;;;;;12.19;40.79;97872.49;1748286;82;20955;-69
2022/01/06 06:32:46;;;;;;;6.80;4.08;;;;;;;12.18;40.78;97873.00;1793876;78;21094;-66
2022/01/06 06:35:12;;;;;;;6.75;4.60;;;;;;;12.18;40.82;97882.33;1793861;79;20910;-70
2022/01/06 06:37:38;;;;;;;7.37;4.35;;;;;;;12.25;40.78;97875.63;1800483;78;21802;-68
2022/01/06 06:40:06;;;;;;;6.05;4.28;;;;;;;12.31;40.77;97878.72;1794045;78;20875;-67
2022/01/06 06:42:33;;;;;;;6.28;4.35;;;;;;;12.34;40.71;97871.11;1794165;78;20989;-70
2022/01/06 06:44:59;;;;;;;4.70;3.98;;;;;;;12.34;40.70;97875.63;1748157;80;21016;-66
2022/01/06 06:47:26;;;;;;;6.40;4.47;;;;;;;12.35;40.74;97881.27;1746146;81;21085;-65
2022/01/06 06:49:55;;;;;;;5.47;4.85;;;;;;;12.40;40.70;97881.42;1725598;80;21124;-67
2022/01/06 06:52:21;;;;;;;6.67;4.45;;;;;;;12.52;40.60;97890.83;1726899;82;21077;-70
2022/01/06 06:54:48;;;;;;;6.60;4.78;;;;;;;12.57;40.52;97889.13;1730007;81;21486;-69
2022/01/06 06:57:14;;;;;;;5.33;4.28;;;;;;;12.63;40.48;97885.59;1752478;81;21047;-69
2022/01/06 06:59:41;;;;;;;5.60;4.90;;;;;;;12.72;40.35;97886.91;1749691;81;21540;-72
2022/01/06 07:02:08;;;;;;;5.75;4.50;;;;;;;12.77;40.29;97891.61;1707834;83;21183;-66
2022/01/06 07:04:34;;;;;;;5.60;4.60;;;;;;;12.79;40.24;97889.53;1746434;81;21057;-65
2022/01/06 07:07:01;;;;;;;6.97;4.90;;;;;;;12.78;40.28;97894.55;1741621;81;21505;-67
2022/01/06 07:09:27;;;;;;;6.97;4.80;;;;;;;12.87;40.23;97891.39;1751199;81;21062;-71
2022/01/06 07:11:55;;;;;;;7.35;4.95;;;;;;;12.90;40.19;97891.46;1745773;81;21117;-71
2022/01/06 07:14:21;;;;;;;9.78;5.22;;;;;;;12.96;40.08;97898.55;1744428;81;21237;-69
2022/01/06 07:16:48;;;;;;;7.53;4.97;;;;;;;13.02;39.97;97896.34;1724374;80;21465;-70
2022/01/06 07:19:15;;;;;;;7.22;5.25;;;;;;;13.03;39.92;97893.98;1789511;79;21584;-69
2022/01/06 07:21:41;;;;;;;7.17;5.70;;;;;;;13.11;39.89;97898.22;1788781;79;21508;-71
2022/01/06 07:24:08;;;;;;;8.43;6.05;;;;;;;13.22;39.80;97895.59;1783829;79;21065;-68
2022/01/06 07:26:34;;;;;;;10.50;6.17;;;;;;;13.33;39.66;97900.19;1790840;79;21143;-69
2022/01/06 07:29:01;;;;;;;8.18;6.92;;;;;;;13.43;39.54;97902.30;1799597;79;20907;-70
2022/01/06 07:31:27;;;;;;;9.48;6.90;;;;;;;13.46;39.46;97914.70;1784305;79;20982;-67
2022/01/06 07:33:54;;;;;;;6.70;5.65;;;;;;;13.50;39.32;97915.87;1795493;79;21453;-71
2022/01/06 07:36:20;;;;;;;9.63;6.08;;;;;;;13.53;39.23;97906.06;1789294;79;21504;-68
2022/01/06 07:38:47;;;;;;;7.80;5.53;;;;;;;13.53;39.23;97895.92;1795271;79;21150;-68
2022/01/06 07:41:13;;;;;;;8.98;5.60;;;;;;;13.59;39.21;97895.81;1783773;79;20909;-69
2022/01/06 07:43:40;;;;;;;7.65;5.40;;;;;;;13.68;39.07;97900.84;1790606;79;20986;-68
2022/01/06 07:46:07;;;;;;;8.43;5.58;;;;;;;13.73;38.95;97906.32;1785418;79;21560;-67
2022/01/06 07:48:48;;;;;;;9.18;6.28;;;;;;;13.76;38.87;97904.02;1802263;79;21093;-67
2022/01/06 07:51:05;;;;;;;9.90;6.53;;;;;;;13.79;38.80;97898.19;1785900;79;21176;-68
2022/01/06 07:53:32;;;;;;;9.13;6.53;;;;;;;13.84;38.77;97897.02;1756781;81;20939;-64
2022/01/06 07:55:59;;;;;;;8.75;6.33;;;;;;;13.98;38.75;97897.59;1743586;81;21073;-68
2022/01/06 07:58:25;;;;;;;8.95;6.22;;;;;;;14.18;38.42;97892.22;1730155;82;21094;-68
2022/01/06 08:00:52;;;;;;;10.90;6.53;;;;;;;14.35;38.07;97885.70;1728345;82;20876;-73
2022/01/06 08:03:19;;;;;;;10.68;6.42;;;;;;;14.43;37.72;97893.38;1737897;82;21142;-71
2022/01/06 08:05:45;;;;;;;9.03;6.10;;;;;;;14.45;37.51;97905.17;1739695;82;22041;-70
2022/01/06 08:08:13;;;;;;;8.10;5.37;;;;;;;14.45;37.46;97903.84;1738392;82;20946;-73
2022/01/06 08:10:39;;;;;;;9.80;5.40;;;;;;;14.51;37.24;97911.77;1727245;82;21488;-69
2022/01/06 08:13:06;;;;;;;8.10;5.83;;;;;;;14.48;37.14;97906.88;1722318;82;21133;-68
2022/01/06 08:15:34;;;;;;;8.18;5.08;;;;;;;14.58;37.14;97898.25;1756743;81;21152;-70
2022/01/06 08:18:00;;;;;;;6.22;4.87;;;;;;;14.74;37.09;97889.00;1763203;81;21008;-72
2022/01/06 08:20:28;;;;;;;9.38;5.70;;;;;;;15.10;36.95;97899.11;1718802;82;21611;-69
2022/01/06 08:22:54;;;;;;;7.92;5.17;;;;;;;15.44;36.33;97912.92;1750582;81;20971;-72
2022/01/06 08:25:20;;;;;;;7.72;4.58;;;;;;;15.55;36.00;97916.64;1757515;80;21489;-68
2022/01/06 08:27:47;;;;;;;8.65;5.05;;;;;;;15.71;35.76;97901.95;1746305;80;21143;-71
2022/01/06 08:30:13;;;;;;;9.35;4.55;;;;;;;15.85;35.50;97900.58;1755061;81;20911;-73
2022/01/06 08:32:39;;;;;;;7.87;5.05;;;;;;;16.06;35.32;97899.88;1719765;82;20979;-73
2022/01/06 08:35:07;;;;;;;8.45;4.83;;;;;;;16.39;34.96;97889.69;1757006;81;21018;-72
2022/01/06 08:37:35;;;;;;;7.65;5.30;;;;;;;16.72;34.52;97893.40;1758021;81;21459;-73
2022/01/06 08:40:03;;;;;;;7.15;4.78;;;;;;;16.92;33.99;97895.04;1727921;82;21191;-71
2022/01/06 08:42:30;;;;;;;6.75;4.85;;;;;;;17.05;33.70;97902.18;1752100;80;21007;-72
2022/01/06 08:44:57;;;;;;;5.97;4.47;;;;;;;17.38;33.28;97897.75;1764867;80;21025;-73
2022/01/06 08:47:24;;;;;;;6.67;4.47;;;;;;;17.75;32.81;97896.83;1766544;80;21037;-69
2022/01/06 08:49:50;;;;;;;6.83;4.35;;;;;;;18.06;32.19;97898.47;1758011;80;21037;-67
2022/01/06 08:52:17;;;;;;;5.70;4.10;;;;;;;18.24;31.78;97896.75;1762803;80;21144;-71
2022/01/06 08:54:44;;;;;;;4.92;3.87;;;;;;;18.45;31.36;97893.14;1803294;78;20883;-72
2022/01/06 08:57:11;;;;;;;6.53;4.70;;;;;;;18.43;30.99;97891.25;1795445;78;20993;-71
2022/01/06 08:59:37;;;;;;;6.03;4.33;;;;;;;18.17;30.98;97899.64;1813334;78;21006;-69
2022/01/06 09:02:04;;;;;;;8.18;4.72;;;;;;;18.14;31.15;97896.14;1807772;78;20906;-72
2022/01/06 09:04:31;;;;;;;7.22;4.90;;;;;;;18.32;31.04;97904.34;1803624;78;21504;-66
2022/01/06 09:06:58;;;;;;;7.80;5.17;;;;;;;18.44;30.95;97896.89;1794238;79;20875;-70
2022/01/06 09:09:26;;;;;;;6.83;5.05;;;;;;;18.60;30.69;97894.62;1805113;78;21026;-67
2022/01/06 09:11:52;;;;;;;8.38;5.05;;;;;;;18.84;30.45;97889.64;1810664;78;21040;-69
2022/01/06 09:14:19;;;;;;;7.47;4.83;;;;;;;18.83;30.34;97883.97;1796769;78;20989;-70
2022/01/06 09:16:45;;;;;;;8.23;5.25;;;;;;;18.78;30.18;97890.15;1766319;80;21851;-65
2022/01/06 09:19:13;;;;;;;8.45;5.70;;;;;;;18.46;30.06;97886.14;1751973;80;20881;-65
2022/01/06 09:21:39;;;;;;;7.40;5.37;;;;;;;18.07;30.42;97890.13;1795757;78;20981;-68
2022/01/06 09:24:07;;;;;;;8.30;5.95;;;;;;;17.67;30.72;97883.05;1804997;78;21010;-65
2022/01/06 09:26:34;;;;;;;7.42;5.12;;;;;;;17.40;31.02;97890.23;1808635;78;20915;-67
2022/01/06 09:29:07;;;;;;;7.95;5.37;;;;;;;17.29;31.41;97890.13;1795106;78;21241;-68
2022/01/06 09:31:36;;;;;;;9.15;6.33;;;;;;;17.56;31.48;97898.78;1804593;78;20872;-66
2022/01/06 09:34:04;;;;;;;7.40;5.08;;;;;;;17.84;31.33;97894.50;1804015;78;20947;-67
2022/01/06 09:36:31;;;;;;;8.45;5.97;;;;;;;18.16;30.97;97900.72;1796123;79;21066;-65
2022/01/06 09:38:58;;;;;;;7.37;5.78;;;;;;;18.37;30.69;97896.31;1800144;78;20979;-66
2022/01/06 09:41:26;;;;;;;6.28;5.22;;;;;;;18.38;30.46;97898.73;1798047;78;21136;-67
2022/01/06 09:43:54;;;;;;;7.45;5.70;;;;;;;18.22;30.34;97897.02;1793247;78;21055;-67
2022/01/06 09:46:21;;;;;;;8.53;5.30;;;;;;;17.94;30.38;97893.80;1793781;79;20931;-68
2022/01/06 09:48:48;;;;;;;6.78;5.28;;;;;;;17.57;30.85;97894.48;1792909;79;20923;-66
2022/01/06 09:51:16;;;;;;;6.78;4.80;;;;;;;17.25;31.09;97893.57;1791925;79;20903;-68
2022/01/06 09:53:43;;;;;;;7.28;5.30;;;;;;;16.89;31.46;97892.32;1796329;79;21426;-68
2022/01/06 09:56:09;;;;;;;10.48;5.65;;;;;;;16.52;31.92;97893.91;1791838;79;21033;-68
2022/01/06 09:58:36;;;;;;;10.43;6.30;;;;;;;16.30;32.30;97889.80;1789555;79;20925;-66
2022/01/06 10:01:03;;;;;;;6.37;5.30;;;;;;;16.13;32.60;97893.55;1795484;79;21009;-68
2022/01/06 10:03:41;;;;;;;7.67;5.40;;;;;;;15.91;32.87;97888.90;1786229;79;20977;-66
2022/01/06 10:06:18;;;;;;;6.55;5.10;;;;;;;15.70;33.20;97894.14;1797040;79;21134;-65
2022/01/06 10:08:59;;;;;;;6.30;5.15;;;;;;;15.50;33.40;97890.57;1788431;79;21001;-65
2022/01/06 10:11:29;;;;;;;7.62;4.72;;;;;;;15.31;33.77;97895.27;1788722;79;21524;-68
2022/01/06 10:14:05;;;;;;;5.33;4.47;;;;;;;15.16;34.02;97898.98;1796606;79;21024;-66
2022/01/06 10:16:31;;;;;;;7.42;5.15;;;;;;;15.01;34.28;97893.33;1789452;79;21022;-66
2022/01/06 10:19:13;;;;;;;9.23;5.75;;;;;;;14.94;34.44;97895.84;1789379;79;22026;-66
2022/01/06 10:21:43;;;;;;;7.75;5.35;;;;;;;14.94;34.67;97891.83;1791895;79;20978;-67
2022/01/06 10:24:12;;;;;;;7.10;5.37;;;;;;;15.04;34.83;97895.53;1799174;79;21517;-67
2022/01/06 10:26:56;;;;;;;8.38;5.22;;;;;;;15.08;34.64;97901.22;1751659;80;21010;-67
2022/01/06 10:29:29;;;;;;;6.90;5.15;;;;;;;14.98;34.72;97899.15;1732582;81;21114;-65
2022/01/06 10:32:07;;;;;;;6.33;5.28;;;;;;;14.87;34.87;97903.17;1731930;82;21573;-66
2022/01/06 10:34:36;;;;;;;8.70;5.62;;;;;;;14.79;35.05;97896.31;1750263;81;20974;-66
2022/01/06 10:37:06;;;;;;;5.72;4.97;;;;;;;14.77;35.14;97905.94;1722435;82;20951;-67
2022/01/06 10:39:43;;;;;;;8.20;5.60;;;;;;;14.72;35.32;97907.17;1719263;82;20955;-67
2022/01/06 10:42:10;;;;;;;5.70;4.55;;;;;;;14.65;35.45;97907.79;1747924;80;21047;-66
2022/01/06 10:44:49;;;;;;;8.00;5.42;;;;;;;14.74;35.48;97917.63;1750633;80;21162;-66
2022/01/06 10:47:38;;;;;;;7.80;5.58;;;;;;;14.70;35.50;97915.92;1744194;81;21461;-65
2022/01/06 10:50:23;;;;;;;8.93;5.95;;;;;;;14.72;35.58;97924.56;1739146;81;20942;-68
2022/01/06 10:53:11;;;;;;;8.88;5.92;;;;;;;14.78;35.70;97922.81;1747445;81;20954;-66
2022/01/06 10:55:41;;;;;;;8.08;5.80;;;;;;;14.71;35.74;97926.94;1751224;81;20907;-63
2022/01/06 10:58:11;;;;;;;8.15;6.10;;;;;;;14.70;35.84;97927.97;1747506;81;21146;-69
2022/01/06 11:00:48;;;;;;;9.43;6.53;;;;;;;14.64;35.88;97917.41;1749191;81;21006;-67
2022/01/06 11:03:20;;;;;;;10.30;6.80;;;;;;;14.62;35.98;97916.83;1754983;80;20895;-65
2022/01/06 11:05:53;;;;;;;9.50;5.80;;;;;;;14.63;36.01;97917.10;1767393;80;21512;-64
2022/01/06 11:08:26;;;;;;;8.33;6.12;;;;;;;14.69;36.13;97910.30;1766243;80;21068;-65
2022/01/06 11:13:44;;;;;;;11.70;5.37;;;;;;;14.61;36.26;97909.31;1771487;80;20907;-67
2022/01/06 11:16:15;;;;;;;7.55;5.75;;;;;;;14.55;36.40;97902.73;1734852;82;20947;-65
2022/01/06 11:18:53;;;;;;;7.35;5.50;;;;;;;14.55;36.41;97902.73;1777428;80;20931;-66
2022/01/06 11:21:42;;;;;;;6.22;4.37;;;;;;;14.49;36.39;97905.84;1746480;80;21582;-69
2022/01/06 11:24:23;;;;;;;7.25;4.85;;;;;;;14.53;36.39;97911.00;1750499;80;21135;-65
2022/01/06 11:27:08;;;;;;;7.05;5.10;;;;;;;14.48;36.46;97904.20;1766374;80;21125;-65
2022/01/06 11:29:38;;;;;;;5.70;4.50;;;;;;;14.50;36.46;97915.48;1812123;78;21000;-67
2022/01/06 11:32:19;;;;;;;9.98;4.87;;;;;;;14.48;36.51;97910.89;1803998;79;21488;-64
2022/01/06 11:34:45;;;;;;;5.35;4.40;;;;;;;14.42;36.56;97910.47;1796594;78;21429;-67
2022/01/06 11:37:14;;;;;;;8.10;4.55;;;;;;;14.46;36.66;97902.29;1803531;79;21132;-66
2022/01/06 11:39:41;;;;;;;7.20;4.90;;;;;;;14.39;36.68;97903.45;1808038;78;20915;-65
2022/01/06 11:42:25;;;;;;;7.10;4.95;;;;;;;14.38;36.74;97901.30;1810547;78;20982;-67
2022/01/06 11:44:54;;;;;;;7.35;4.53;;;;;;;14.52;36.68;97901.89;1791790;79;20991;-67
2022/01/06 11:47:37;;;;;;;6.05;4.50;;;;;;;14.57;36.55;97900.11;1792948;79;20911;-66
2022/01/06 11:50:15;;;;;;;6.05;4.75;;;;;;;14.65;36.47;97911.80;1797670;79;21132;-66